x

Ilm3 - 27 Miles Se Of Wrightsville Beach, Nc (41037) Weather Station

10:08am - Sat 23rd Jul 2016 All times are EDT. -4 hours from GMT.

  • Wind
    11mph, 13mph gusts
  • Sea Temp 84°f
  • 空気 Temp 83°f
  • Sea Pressure 1017.1mb
  • Ilm3 - 27 Miles Se Of Wrightsville Beach, Nc
  • Ilm3 - 27 Miles Se Of Wrightsville Beach, Nc

More Historic Weather Station data

Upgrade to MSW Pro to gain access to the past 30 days of data for over 8000 Wavebouys and Weather Stations around the globe.

Join Pro

Comparision Forecast

View Surf forecast
   
Sat 07/23 10:08am 11 13 mph 1017.1mb 84f 83f
9:08am 9 11 mph 1016.8mb 84f 85f
7:08am 9 11 mph 1016.5mb 84f 84f
6:08am 9 11 mph 1016.4mb 84f 84f
5:08am 9 13 mph 1016.1mb 85f 84f
4:08am 9 13 mph 1016.3mb 85f 84f
3:08am 11 13 mph 1016.7mb 85f 84f
2:08am 11 16 mph 1016.7mb 85f 83f
1:08am 13 16 mph 1016.8mb 85f 83f
12:08am 13 18 mph 1016.9mb 85f 83f
Fri 07/22 11:08pm 11 16 mph 1017.2mb 85f 83f
10:08pm 11 13 mph 1017.3mb 85f 83f
9:08pm 9 11 mph 1017mb 85f 83f
8:08pm 7 11 mph 1016.9mb 85f 83f
7:08pm 4 7 mph 1016.6mb 85f 84f
6:08pm 4 7 mph 1016.9mb 86f 84f
5:08pm 4 9 mph 1017.8mb 86f 84f
4:08pm 4 7 mph 1018.5mb 86f 84f
3:08pm 4 7 mph 1019.3mb 86f 84f
2:08pm 4 7 mph 1019.7mb 85f 84f
1:08pm 4 7 mph 1019.9mb 85f 84f
12:08pm 7 9 mph 1019.8mb 85f 83f
11:08am 2 7 mph 1020.2mb 85f 83f
10:08am 4 9 mph 1019.5mb 84f 83f
9:08am 7 11 mph 1019.3mb 84f 83f
8:08am 7 11 mph 1018.9mb 84f 81f
7:08am 4 7 mph 1018.7mb 84f 82f
6:08am 2 7 mph 1018.6mb 84f 79f
5:08am 2 4 mph 1018.8mb 84f 79f
4:08am 2
mph
1018.6mb 84f 79f
3:08am 2
mph
1018.8mb 84f 80f
2:08am 2 7 mph 1019mb 84f 80f
1:08am 2 7 mph 1019.8mb 84f 81f
12:08am 2 4 mph 1020mb 85f 81f
Thu 07/21 11:08pm 4 7 mph 1020.4mb 85f 81f
10:08pm 4 9 mph 1020.2mb 85f 81f
9:08pm 7 9 mph 1019.6mb 85f 81f
8:08pm 7 11 mph 1018.9mb 84f 82f
7:08pm 9 13 mph 1019.1mb 85f 82f
6:08pm 7 11 mph 1018.9mb 85f 82f
5:08pm 7 9 mph 1019.7mb 85f 83f
4:08pm 7 11 mph 1019.7mb 85f 83f
3:08pm 7 9 mph 1020.3mb 85f 82f
2:08pm 7 11 mph 1021.5mb 85f 82f
1:08pm 9 11 mph 1021.4mb 85f 82f
12:08pm 9 11 mph 1021.3mb 84f 82f
11:08am 9 11 mph 1021.4mb 84f 82f
10:08am 7 11 mph 1021.1mb 84f 82f
9:08am 9 13 mph 1021.5mb 84f 81f
8:08am 2 4 mph 1020.5mb 84f 81f
7:08am 4 9 mph 1020.1mb 84f 81f
5:08am 2 4 mph 1019.1mb 84f 79f
4:08am  -  2 mph 1019.6mb 84f 80f
3:08am 2 4 mph 1019.7mb 84f 80f
2:08am 7 9 mph 1020mb 84f 80f
1:08am 4 9 mph 1020.3mb 84f 81f
12:08am 4 7 mph 1020.3mb 85f 81f
Wed 07/20 11:08pm 2 7 mph 1020.6mb 85f 81f
10:08pm 4 7 mph 1020.5mb 84f 81f
9:08pm 7 11 mph 1019.8mb 85f 81f
8:08pm 4 9 mph 1019.1mb 86f 82f
7:08pm 4 7 mph 1019mb 86f 83f
6:08pm 4 7 mph 1019.3mb 86f 84f
5:08pm 2 4 mph 1019.9mb 85f 86f
4:08pm 4 7 mph 1020.1mb 85f 83f
3:08pm 4 9 mph 1020.5mb 85f 81f
2:08pm 2 4 mph 1020.7mb 85f 82f
1:08pm 4 7 mph 1021.8mb 84f 80f
12:08pm 4 9 mph 1021.9mb 84f 80f
11:08am 4 9 mph 1021.5mb 84f 81f
10:08am 4 7 mph 1021.3mb 83f 80f
9:08am 9 13 mph 1021.1mb 83f 80f
8:08am 11 16 mph 1020.5mb 83f 79f
7:08am 13 18 mph 1020mb 83f 77f
6:08am 13 18 mph 1020.2mb 83f 77f
5:08am 16 20 mph 1019.8mb 84f 77f
4:08am 13 18 mph 1020mb 84f 77f
3:08am 11 13 mph 1019.6mb 84f 78f
2:08am 13 18 mph 1019.5mb 84f 79f
1:08am 18 22 mph 1020.3mb 84f 82f
12:08am 16 20 mph 1020.4mb 84f 82f
Tue 07/19 11:08pm 13 18 mph 1020.8mb 84f 82f
10:08pm 13 18 mph 1021.1mb 84f 82f
9:08pm 9 11 mph 1019.9mb 84f 81f
8:08pm 13 18 mph 1020.3mb 84f 81f
7:08pm 9 11 mph 1021mb 84f 81f
6:08pm 11 13 mph 1020.6mb 84f 82f
5:08pm 9 13 mph 1021.5mb 84f 82f
4:08pm 13 18 mph 1020.6mb 84f 82f